Time;durP1;ratioP1;P1;durP2;ratioP2;P2;SDS_P1;SDS_P2;PMS_P1;PMS_P2;Temp;Humidity;BMP_temperature;BMP_pressure;BME280_temperature;BME280_humidity;BME280_pressure;Samples;Min_cycle;Max_cycle;Signal;HPM_P1;HPM_P2
2022/05/13 00:01:07;;;;;;;5.75;3.00;;;11.90;99.90;;;;;;5019774;28;20473;-75
2022/05/13 00:03:33;;;;;;;7.25;3.17;;;11.90;99.90;;;;;;5025796;28;20053;-75
2022/05/13 00:06:00;;;;;;;9.88;2.90;;;11.90;99.90;;;;;;5023056;28;20049;-74
2022/05/13 00:08:26;;;;;;;4.50;3.13;;;12.00;99.90;;;;;;5026462;28;20061;-76
2022/05/13 00:10:53;;;;;;;5.63;3.13;;;12.00;99.90;;;;;;5022311;28;20049;-75
2022/05/13 00:13:20;;;;;;;3.90;2.42;;;12.00;99.90;;;;;;5025950;28;20056;-76
2022/05/13 00:15:46;;;;;;;8.27;3.05;;;12.00;99.90;;;;;;5025617;28;20049;-74
2022/05/13 00:18:13;;;;;;;9.98;3.35;;;12.10;99.90;;;;;;5016084;28;20049;-76
2022/05/13 00:20:39;;;;;;;5.20;2.78;;;12.10;99.90;;;;;;5029882;28;20064;-76
2022/05/13 00:23:06;;;;;;;2.60;2.03;;;12.10;99.90;;;;;;5021922;28;20056;-75
2022/05/13 00:25:32;;;;;;;4.45;2.75;;;12.10;99.90;;;;;;5019420;28;20058;-76
2022/05/13 00:27:59;;;;;;;10.40;2.97;;;12.20;99.90;;;;;;5023190;28;20056;-76
2022/05/13 00:30:25;;;;;;;11.77;3.35;;;12.20;99.90;;;;;;5026325;28;20049;-74
2022/05/13 00:32:52;;;;;;;13.70;3.30;;;12.20;99.90;;;;;;5020970;28;20057;-74
2022/05/13 00:35:19;;;;;;;2.55;2.22;;;12.20;99.90;;;;;;5014241;28;20053;-79
2022/05/13 00:37:45;;;;;;;6.25;2.95;;;12.20;99.90;;;;;;5012018;28;20045;-75
2022/05/13 00:40:12;;;;;;;9.35;3.35;;;12.20;99.90;;;;;;5021135;28;20049;-76
2022/05/13 00:42:38;;;;;;;9.88;3.35;;;12.20;99.90;;;;;;5023283;28;20049;-76
2022/05/13 00:45:05;;;;;;;7.43;2.75;;;12.20;99.90;;;;;;5022090;28;20056;-76
2022/05/13 00:47:31;;;;;;;7.35;3.50;;;12.30;99.90;;;;;;5024823;28;20049;-76
2022/05/13 00:49:58;;;;;;;4.85;2.95;;;12.30;99.90;;;;;;5025160;28;20508;-76
2022/05/13 00:52:24;;;;;;;10.25;3.17;;;12.20;99.90;;;;;;5011107;28;20050;-76
2022/05/13 00:54:51;;;;;;;6.15;4.00;;;12.30;99.90;;;;;;5024796;28;20045;-76
2022/05/13 00:57:18;;;;;;;4.47;3.10;;;12.30;99.90;;;;;;5019302;28;20052;-74
2022/05/13 00:59:44;;;;;;;5.85;3.50;;;12.30;99.90;;;;;;5025515;28;20072;-76
2022/05/13 01:02:11;;;;;;;4.45;3.25;;;12.30;99.90;;;;;;5019114;28;20056;-76
2022/05/13 01:04:38;;;;;;;9.02;3.65;;;12.30;99.90;;;;;;5014327;28;20397;-74
2022/05/13 01:07:04;;;;;;;4.30;3.13;;;12.30;99.90;;;;;;5031354;28;20389;-76
2022/05/13 01:09:31;;;;;;;10.23;3.90;;;12.30;99.90;;;;;;5033576;28;20500;-76
2022/05/13 01:11:58;;;;;;;7.75;3.35;;;12.20;99.90;;;;;;5029492;28;20492;-74
2022/05/13 01:14:25;;;;;;;11.15;3.75;;;12.20;99.90;;;;;;5024053;28;20088;-76
2022/05/13 01:19:35;;;;;;;5.85;4.25;;;12.30;99.90;;;;;;5028643;28;20057;-76
2022/05/13 01:22:02;;;;;;;9.48;3.90;;;12.30;99.90;;;;;;5022243;28;20053;-76
2022/05/13 01:24:28;;;;;;;9.10;4.10;;;12.30;99.90;;;;;;5033524;28;20054;-76
2022/05/13 01:26:55;;;;;;;12.75;3.40;;;12.30;99.90;;;;;;5034219;28;20068;-74
2022/05/13 01:29:21;;;;;;;5.38;3.22;;;12.30;99.90;;;;;;5034567;28;20054;-76
2022/05/13 01:31:48;;;;;;;6.97;3.28;;;12.20;99.90;;;;;;5031920;28;20049;-75
2022/05/13 01:34:14;;;;;;;7.78;3.92;;;12.20;99.90;;;;;;5033426;28;20049;-75
2022/05/13 01:36:41;;;;;;;5.63;3.55;;;12.20;99.90;;;;;;5033918;28;20045;-76
2022/05/13 01:39:07;;;;;;;5.68;3.63;;;12.30;99.90;;;;;;5029419;28;20050;-76
2022/05/13 01:41:34;;;;;;;12.77;4.30;;;12.20;99.90;;;;;;5020541;28;20489;-76
2022/05/13 01:44:00;;;;;;;8.52;3.13;;;12.20;99.90;;;;;;5031741;28;20049;-75
2022/05/13 01:46:27;;;;;;;3.80;3.40;;;12.20;99.90;;;;;;5018449;28;20050;-77
2022/05/13 01:48:53;;;;;;;6.80;3.65;;;12.20;99.90;;;;;;5023184;28;20054;-78
2022/05/13 01:51:20;;;;;;;5.78;3.50;;;12.20;99.90;;;;;;5026290;28;20116;-76
2022/05/13 01:53:46;;;;;;;7.65;3.08;;;12.20;99.90;;;;;;5029102;28;20041;-75
2022/05/13 01:56:13;;;;;;;7.88;3.40;;;12.20;99.90;;;;;;5020157;28;20050;-76
2022/05/13 01:58:39;;;;;;;8.02;3.63;;;12.20;99.90;;;;;;5021367;28;20131;-76
2022/05/13 02:01:06;;;;;;;7.03;3.67;;;12.20;99.90;;;;;;5022268;28;20057;-75
2022/05/13 02:03:44;;;;;;;5.13;3.20;;;12.20;99.90;;;;;;5021558;28;20045;-76
2022/05/13 02:06:10;;;;;;;14.07;4.47;;;12.20;99.90;;;;;;5027729;28;20058;-75
2022/05/13 02:08:37;;;;;;;14.65;3.80;;;12.20;99.90;;;;;;5031900;28;20055;-76
2022/05/13 02:11:03;;;;;;;12.45;3.88;;;12.10;99.90;;;;;;5025723;28;20056;-76
2022/05/13 02:13:30;;;;;;;9.98;4.25;;;12.10;99.90;;;;;;5025875;28;20053;-76
2022/05/13 02:15:56;;;;;;;7.65;3.63;;;12.10;99.90;;;;;;5032175;28;20061;-75
2022/05/13 02:18:23;;;;;;;7.47;3.30;;;12.10;99.90;;;;;;5023035;28;20049;-76
2022/05/13 02:20:49;;;;;;;6.88;3.38;;;12.10;99.90;;;;;;5025080;28;20839;-76
2022/05/13 02:23:16;;;;;;;6.75;3.78;;;12.00;99.90;;;;;;5020632;28;20503;-78
2022/05/13 02:25:43;;;;;;;8.70;3.80;;;12.00;99.90;;;;;;5020422;28;20054;-76
2022/05/13 02:28:09;;;;;;;11.88;3.33;;;12.10;99.90;;;;;;5025834;28;20463;-76
2022/05/13 02:30:36;;;;;;;7.97;3.53;;;12.10;99.90;;;;;;5027044;28;20405;-75
2022/05/13 02:33:02;;;;;;;7.13;3.83;;;12.00;99.90;;;;;;5020966;28;20042;-76
2022/05/13 02:35:29;;;;;;;6.18;3.42;;;12.00;99.90;;;;;;5016345;28;20050;-80
2022/05/13 02:37:56;;;;;;;7.90;3.47;;;12.00;99.90;;;;;;5017608;28;20065;-76
2022/05/13 02:41:11;;;;;;;9.80;3.92;;;12.00;99.90;;;;;;5032240;28;20053;-75
2022/05/13 02:43:09;;;;;;;4.70;3.72;;;12.10;99.90;;;;;;5030972;28;20046;-76
2022/05/13 02:45:35;;;;;;;10.98;3.42;;;12.10;99.90;;;;;;5027057;28;20056;-76
2022/05/13 02:48:02;;;;;;;7.82;3.25;;;12.10;99.90;;;;;;5029889;28;20049;-78
2022/05/13 02:50:28;;;;;;;13.60;4.68;;;12.10;99.90;;;;;;5024668;28;20046;-76
2022/05/13 02:52:55;;;;;;;10.18;3.63;;;12.10;99.90;;;;;;5022225;28;20092;-76
2022/05/13 02:55:21;;;;;;;11.75;4.65;;;12.10;99.90;;;;;;5030985;28;20057;-77
2022/05/13 02:57:48;;;;;;;9.55;3.40;;;12.10;99.90;;;;;;5015749;28;20072;-77
2022/05/13 03:00:15;;;;;;;7.35;3.95;;;12.10;99.90;;;;;;5032974;28;20057;-76
2022/05/13 03:02:43;;;;;;;7.82;3.95;;;12.10;99.90;;;;;;5027282;28;20477;-77
2022/05/13 03:05:09;;;;;;;7.65;4.47;;;12.10;99.90;;;;;;5027228;28;20061;-76
2022/05/13 03:07:36;;;;;;;8.10;4.65;;;12.10;99.90;;;;;;5021670;28;20050;-76
2022/05/13 03:10:05;;;;;;;13.95;4.35;;;12.10;99.90;;;;;;5024006;28;20076;-77
2022/05/13 03:12:31;;;;;;;10.98;4.20;;;12.10;99.90;;;;;;5029518;28;20061;-76
2022/05/13 03:14:58;;;;;;;11.52;4.63;;;12.00;99.90;;;;;;5019113;28;20046;-76
2022/05/13 03:17:24;;;;;;;7.32;4.03;;;12.10;99.90;;;;;;5017479;28;20056;-75
2022/05/13 03:19:51;;;;;;;7.53;3.67;;;12.00;99.90;;;;;;5023175;28;20497;-76
2022/05/13 03:22:17;;;;;;;6.60;3.95;;;12.00;99.90;;;;;;5027710;28;20049;-76
2022/05/13 03:24:44;;;;;;;15.05;3.95;;;12.00;99.90;;;;;;5024935;28;20137;-76
2022/05/13 03:27:10;;;;;;;8.65;4.00;;;12.00;99.90;;;;;;5027333;28;20058;-76
2022/05/13 03:29:37;;;;;;;6.47;4.07;;;12.00;99.90;;;;;;5017600;28;20418;-77
2022/05/13 03:32:03;;;;;;;7.53;4.10;;;12.00;99.90;;;;;;5025998;28;20481;-77
2022/05/13 03:34:31;;;;;;;11.82;5.35;;;12.00;99.90;;;;;;5026539;28;20511;-77
2022/05/13 03:36:57;;;;;;;9.93;3.60;;;11.90;99.90;;;;;;5023591;28;20058;-76
2022/05/13 03:39:24;;;;;;;10.48;4.18;;;12.00;99.90;;;;;;5026940;28;20103;-77
2022/05/13 03:41:50;;;;;;;14.55;4.45;;;12.00;99.90;;;;;;5020133;28;20496;-76
2022/05/13 03:44:17;;;;;;;9.98;4.95;;;11.90;99.90;;;;;;5028661;28;20052;-76
2022/05/13 03:46:43;;;;;;;10.00;4.07;;;11.90;99.90;;;;;;5027007;28;20038;-76
2022/05/13 03:49:10;;;;;;;14.75;4.70;;;11.90;99.90;;;;;;5022436;28;20068;-76
2022/05/13 03:51:36;;;;;;;10.63;5.13;;;11.90;99.90;;;;;;5025569;28;20052;-79
2022/05/13 03:54:03;;;;;;;13.43;4.22;;;11.90;99.90;;;;;;5023312;28;20058;-77
2022/05/13 03:56:30;;;;;;;12.32;4.32;;;11.90;99.90;;;;;;5031429;28;20500;-76
2022/05/13 03:58:56;;;;;;;7.90;4.55;;;11.80;99.90;;;;;;5022693;28;20076;-76
2022/05/13 04:01:23;;;;;;;15.18;5.28;;;11.90;99.90;;;;;;5020983;28;20080;-75
2022/05/13 04:03:49;;;;;;;13.13;4.65;;;11.80;99.90;;;;;;5020768;28;20412;-76
2022/05/13 04:09:00;;;;;;;11.93;4.63;;;11.80;99.90;;;;;;5026505;28;20489;-75
2022/05/13 04:11:27;;;;;;;8.38;4.95;;;11.90;99.90;;;;;;5028392;28;20045;-76
2022/05/13 04:16:37;;;;;;;8.75;4.20;;;11.80;99.90;;;;;;5025898;28;20046;-75
2022/05/13 04:19:05;;;;;;;11.15;5.55;;;11.80;99.90;;;;;;5014126;28;20046;-76
2022/05/13 04:21:32;;;;;;;15.90;6.03;;;11.90;99.90;;;;;;5023816;28;20089;-75
2022/05/13 04:23:58;;;;;;;10.50;5.22;;;11.90;99.90;;;;;;5028797;28;20064;-75
2022/05/13 04:26:25;;;;;;;10.85;4.65;;;11.90;99.90;;;;;;5026412;28;20057;-76
2022/05/13 04:28:51;;;;;;;10.65;3.92;;;11.80;99.90;;;;;;5019846;28;20108;-76
2022/05/13 04:31:18;;;;;;;12.10;5.35;;;11.90;99.90;;;;;;5028370;28;20052;-76
2022/05/13 04:33:44;;;;;;;15.38;5.70;;;11.90;99.90;;;;;;5028203;28;20056;-76
2022/05/13 04:36:11;;;;;;;14.15;4.97;;;11.90;99.90;;;;;;5026217;28;20056;-76
2022/05/13 04:38:38;;;;;;;16.08;6.95;;;11.90;99.90;;;;;;5026540;28;20049;-76
2022/05/13 04:43:44;;;;;;;17.25;7.45;;;11.90;99.90;;;;;;5018017;28;20045;-77
2022/05/13 04:46:11;;;;;;;16.38;7.15;;;11.90;99.90;;;;;;5023839;28;20053;-76
2022/05/13 04:48:38;;;;;;;15.63;5.75;;;11.90;99.90;;;;;;5026483;28;20061;-75
2022/05/13 04:51:04;;;;;;;15.15;7.28;;;12.00;99.90;;;;;;5026235;28;20424;-77
2022/05/13 04:53:31;;;;;;;16.88;8.40;;;12.00;99.90;;;;;;5026051;28;20053;-76
2022/05/13 04:55:57;;;;;;;13.63;7.88;;;12.00;99.90;;;;;;5016564;28;20141;-76
2022/05/13 04:58:24;;;;;;;18.67;7.55;;;12.00;99.90;;;;;;5021883;28;20049;-77
2022/05/13 05:00:50;;;;;;;15.45;7.57;;;12.00;99.90;;;;;;5015872;28;20184;-76
2022/05/13 05:03:17;;;;;;;15.75;5.57;;;12.00;99.90;;;;;;5025353;28;20050;-76
2022/05/13 05:05:44;;;;;;;11.02;4.80;;;12.00;99.90;;;;;;5020197;28;20053;-79
2022/05/13 05:08:10;;;;;;;20.65;4.80;;;12.10;99.90;;;;;;5029737;28;20420;-77
2022/05/13 05:10:37;;;;;;;8.75;4.78;;;12.10;99.90;;;;;;5015941;28;20053;-77
2022/05/13 05:13:03;;;;;;;20.23;5.55;;;12.00;99.90;;;;;;5020616;28;20215;-76
2022/05/13 05:15:30;;;;;;;14.25;4.97;;;12.00;99.90;;;;;;5018947;28;20428;-76
2022/05/13 05:17:56;;;;;;;17.58;5.68;;;12.10;99.90;;;;;;5024605;28;20086;-78
2022/05/13 05:20:23;;;;;;;15.18;5.82;;;12.10;99.90;;;;;;5015910;28;20065;-76
2022/05/13 05:22:49;;;;;;;17.17;6.20;;;12.10;99.90;;;;;;5025604;28;20462;-76
2022/05/13 05:25:16;;;;;;;13.55;5.78;;;12.10;99.90;;;;;;5018949;28;20046;-76
2022/05/13 05:27:42;;;;;;;15.73;6.32;;;12.10;99.90;;;;;;5028390;28;20057;-76
2022/05/13 05:30:09;;;;;;;14.73;5.82;;;12.10;99.90;;;;;;5016264;28;20061;-76
2022/05/13 05:32:35;;;;;;;12.55;5.57;;;12.20;99.90;;;;;;5026030;28;20057;-75
2022/05/13 05:35:03;;;;;;;15.40;5.35;;;12.20;99.90;;;;;;5022059;28;20379;-75
2022/05/13 05:37:29;;;;;;;25.02;5.65;;;12.30;99.90;;;;;;5022674;28;20053;-76
2022/05/13 05:39:56;;;;;;;9.95;5.18;;;12.30;99.90;;;;;;5028608;28;20052;-76
2022/05/13 05:42:22;;;;;;;14.23;6.57;;;12.40;99.90;;;;;;5018741;28;20202;-76
2022/05/13 05:44:49;;;;;;;16.52;5.78;;;12.40;99.90;;;;;;5020009;28;20485;-77
2022/05/13 05:47:16;;;;;;;12.82;5.85;;;12.40;99.90;;;;;;5026470;28;20125;-76
2022/05/13 05:49:43;;;;;;;16.80;5.97;;;12.50;99.90;;;;;;5011348;28;20137;-75
2022/05/13 05:52:10;;;;;;;19.95;5.78;;;12.50;99.90;;;;;;5020799;28;20296;-74
2022/05/13 05:57:32;;;;;;;21.70;6.93;;;12.60;99.90;;;;;;4957263;28;20057;-77
2022/05/13 05:59:59;;;;;;;13.48;6.10;;;12.60;99.90;;;;;;5008018;28;20049;-77
2022/05/13 06:02:25;;;;;;;25.98;8.38;;;12.70;99.90;;;;;;5016624;28;20050;-77
2022/05/13 06:04:52;;;;;;;18.30;6.32;;;12.80;99.90;;;;;;5016222;28;20057;-78
2022/05/13 06:07:18;;;;;;;23.65;7.50;;;12.90;99.90;;;;;;5022612;28;20038;-77
2022/05/13 06:09:45;;;;;;;17.25;7.80;;;13.00;99.90;;;;;;5016987;28;20057;-79
2022/05/13 06:12:11;;;;;;;23.10;8.13;;;13.00;99.90;;;;;;5018357;28;20193;-77
2022/05/13 06:14:38;;;;;;;17.50;8.85;;;13.10;99.90;;;;;;5014362;28;20042;-76
2022/05/13 06:17:04;;;;;;;18.63;7.78;;;13.20;99.90;;;;;;5015130;28;20049;-76
2022/05/13 06:19:31;;;;;;;18.13;7.55;;;13.30;99.90;;;;;;5018706;28;20060;-79
2022/05/13 06:21:58;;;;;;;18.27;7.93;;;13.30;99.90;;;;;;5014831;28;20050;-77
2022/05/13 06:24:24;;;;;;;23.30;8.88;;;13.40;99.90;;;;;;5017506;28;20049;-77
2022/05/13 06:26:51;;;;;;;24.40;5.97;;;13.50;99.90;;;;;;5012833;28;20918;-81
2022/05/13 06:29:17;;;;;;;16.13;7.10;;;13.50;99.90;;;;;;5014436;28;20057;-77
2022/05/13 06:31:44;;;;;;;15.52;5.60;;;13.50;99.90;;;;;;5013055;28;20050;-77
2022/05/13 06:34:10;;;;;;;17.40;5.75;;;13.60;99.90;;;;;;5012404;28;20045;-77
2022/05/13 06:36:37;;;;;;;16.75;5.07;;;13.50;99.90;;;;;;5014549;28;20046;-76
2022/05/13 06:39:03;;;;;;;14.43;5.63;;;13.50;99.90;;;;;;5015702;28;20057;-77
2022/05/13 06:41:30;;;;;;;13.32;4.95;;;13.50;99.90;;;;;;5013884;28;20053;-77
2022/05/13 06:43:56;;;;;;;13.80;5.03;;;13.50;99.90;;;;;;5015331;28;20046;-77
2022/05/13 06:46:23;;;;;;;12.43;4.40;;;13.50;99.90;;;;;;5014212;28;20096;-77
2022/05/13 06:48:49;;;;;;;11.35;4.57;;;13.50;99.90;;;;;;5014894;28;20046;-77
2022/05/13 06:51:16;;;;;;;12.13;3.85;;;13.50;99.90;;;;;;5015079;28;20100;-77
2022/05/13 06:53:43;;;;;;;11.32;4.07;;;13.50;99.90;;;;;;5018559;28;20054;-77
2022/05/13 06:56:09;;;;;;;8.18;4.25;;;13.50;99.90;;;;;;5015203;28;20057;-78
2022/05/13 06:58:36;;;;;;;13.98;4.80;;;13.60;99.90;;;;;;5016743;28;20466;-77
2022/05/13 07:01:02;;;;;;;13.30;5.00;;;13.60;99.90;;;;;;5016721;28;20048;-77
2022/05/13 07:03:29;;;;;;;12.00;4.00;;;13.60;99.90;;;;;;5019644;28;20520;-78
2022/05/13 07:05:55;;;;;;;8.45;4.25;;;13.70;99.90;;;;;;5016271;28;20049;-81
2022/05/13 07:08:22;;;;;;;8.70;3.50;;;13.70;99.90;;;;;;5015185;28;20053;-76
2022/05/13 07:10:48;;;;;;;5.90;3.30;;;13.80;99.90;;;;;;5015132;28;20052;-77
2022/05/13 07:13:15;;;;;;;11.35;4.10;;;13.80;99.90;;;;;;5014631;28;20064;-77
2022/05/13 07:15:42;;;;;;;11.15;4.40;;;13.80;99.90;;;;;;5020372;28;20078;-78
2022/05/13 07:18:09;;;;;;;15.60;4.82;;;13.90;99.90;;;;;;5015785;28;20046;-77
2022/05/13 07:20:36;;;;;;;11.63;3.90;;;14.00;99.90;;;;;;5019941;28;20132;-78
2022/05/13 07:23:02;;;;;;;10.43;3.95;;;14.10;99.90;;;;;;5014484;28;20104;-77
2022/05/13 07:25:31;;;;;;;10.85;4.07;;;14.10;99.90;;;;;;5018048;28;20041;-77
2022/05/13 07:27:57;;;;;;;12.13;3.50;;;14.10;99.90;;;;;;5013086;28;20133;-81
2022/05/13 07:30:24;;;;;;;8.48;3.28;;;14.10;99.90;;;;;;5015673;28;20061;-78
2022/05/13 07:32:50;;;;;;;10.00;3.60;;;14.20;99.90;;;;;;5015153;28;20077;-77
2022/05/13 07:35:17;;;;;;;7.13;3.25;;;14.20;99.90;;;;;;5013621;28;20046;-77
2022/05/13 07:37:43;;;;;;;8.77;3.92;;;14.30;99.90;;;;;;5019238;28;20050;-78
2022/05/13 07:42:54;;;;;;;11.50;3.58;;;14.50;99.90;;;;;;5029900;28;20111;-78
2022/05/13 07:45:21;;;;;;;8.45;3.03;;;14.50;99.90;;;;;;5022562;28;20054;-79
2022/05/13 07:47:47;;;;;;;3.47;2.70;;;14.50;99.90;;;;;;5019756;28;20370;-78
2022/05/13 07:50:14;;;;;;;6.03;3.17;;;14.60;99.90;;;;;;5019835;28;20505;-77
2022/05/13 07:52:41;;;;;;;9.45;3.88;;;14.60;99.90;;;;;;5021844;28;20525;-78
2022/05/13 07:55:07;;;;;;;8.20;3.53;;;14.60;99.90;;;;;;5013048;28;20390;-79
2022/05/13 07:57:34;;;;;;;10.90;3.40;;;14.60;99.90;;;;;;5014854;28;20064;-78
2022/05/13 08:02:44;;;;;;;14.05;3.13;;;14.60;99.90;;;;;;5014431;28;20137;-77
2022/05/13 08:05:11;;;;;;;4.55;2.88;;;14.80;99.90;;;;;;5013404;28;20133;-78
2022/05/13 08:07:37;;;;;;;6.38;2.80;;;15.10;99.90;;;;;;5017573;28;20437;-78
2022/05/13 08:10:04;;;;;;;12.52;2.80;;;15.30;99.90;;;;;;5016348;28;20417;-78
2022/05/13 08:12:31;;;;;;;9.38;2.47;;;15.40;99.90;;;;;;5016242;28;20046;-79
2022/05/13 08:14:58;;;;;;;5.28;2.85;;;15.60;99.90;;;;;;5013328;28;20048;-78
2022/05/13 08:17:24;;;;;;;7.47;2.55;;;15.60;99.90;;;;;;5014310;28;20046;-78
2022/05/13 08:19:51;;;;;;;3.50;2.22;;;15.60;99.90;;;;;;5020297;28;20054;-78
2022/05/13 08:22:17;;;;;;;4.65;2.95;;;15.60;99.90;;;;;;5005927;28;20057;-79
2022/05/13 08:24:44;;;;;;;5.45;2.97;;;15.70;99.90;;;;;;5013998;28;20050;-79
2022/05/13 08:27:10;;;;;;;7.95;2.05;;;15.60;99.90;;;;;;5012039;28;20068;-78
2022/05/13 08:29:37;;;;;;;5.40;2.60;;;15.50;99.90;;;;;;5015919;28;20081;-79
2022/05/13 08:32:04;;;;;;;8.88;2.75;;;15.40;99.90;;;;;;5023995;28;20556;-81
2022/05/13 08:34:31;;;;;;;9.50;1.92;;;15.30;99.90;;;;;;5018500;28;20052;-79
2022/05/13 08:36:57;;;;;;;14.55;2.53;;;15.30;99.90;;;;;;5022232;28;20057;-79
2022/05/13 08:39:24;;;;;;;8.32;2.03;;;15.30;99.90;;;;;;5019137;28;20046;-78
2022/05/13 08:41:50;;;;;;;5.55;2.33;;;15.30;99.90;;;;;;5020245;28;20052;-78
2022/05/13 08:44:17;;;;;;;8.73;2.83;;;15.30;99.90;;;;;;5024366;28;20056;-78
2022/05/13 08:46:44;;;;;;;11.15;2.40;;;15.20;99.90;;;;;;5011621;28;20488;-79
2022/05/13 08:49:10;;;;;;;4.35;2.13;;;15.20;99.90;;;;;;5016918;28;20099;-79
2022/05/13 08:51:37;;;;;;;7.43;2.40;;;15.10;99.90;;;;;;5011232;28;20092;-80
2022/05/13 08:54:03;;;;;;;7.95;2.72;;;15.10;99.90;;;;;;5021863;28;20093;-82
2022/05/13 08:56:30;;;;;;;3.38;2.13;;;15.00;99.90;;;;;;5012428;28;20050;-81
2022/05/13 08:58:57;;;;;;;7.72;1.90;;;15.00;99.90;;;;;;5016269;28;20096;-78
2022/05/13 09:01:23;;;;;;;5.88;2.30;;;15.00;99.90;;;;;;5017023;28;20097;-79
2022/05/13 09:03:50;;;;;;;7.28;2.13;;;15.00;99.90;;;;;;5024632;28;20429;-80
2022/05/13 09:06:17;;;;;;;5.32;1.85;;;15.00;99.90;;;;;;5024529;28;20049;-79
2022/05/13 09:08:43;;;;;;;7.50;2.47;;;15.00;99.90;;;;;;5014086;28;20045;-79
2022/05/13 09:11:10;;;;;;;11.77;3.15;;;15.10;99.90;;;;;;5020185;28;20065;-81
2022/05/13 09:13:36;;;;;;;4.07;1.77;;;15.20;99.90;;;;;;5011006;28;20054;-79
2022/05/13 09:16:03;;;;;;;9.07;2.83;;;15.20;99.90;;;;;;5020036;28;20049;-79
2022/05/13 09:18:30;;;;;;;4.35;3.35;;;15.30;99.90;;;;;;5020173;28;20057;-78
2022/05/13 09:20:56;;;;;;;3.08;2.22;;;15.40;99.90;;;;;;5026711;28;20473;-79
2022/05/13 09:23:23;;;;;;;4.47;2.72;;;15.50;99.90;;;;;;5022165;28;20041;-79
2022/05/13 09:25:49;;;;;;;2.92;1.77;;;15.70;99.90;;;;;;5019411;28;20042;-79
2022/05/13 09:28:16;;;;;;;4.55;2.10;;;15.90;99.90;;;;;;5027377;28;20052;-79
2022/05/13 09:30:42;;;;;;;3.50;2.28;;;15.90;99.90;;;;;;5020573;28;20054;-78
2022/05/13 09:33:09;;;;;;;9.32;3.17;;;16.00;99.90;;;;;;5025460;28;20061;-79
2022/05/13 09:35:35;;;;;;;3.38;1.92;;;15.90;99.90;;;;;;5021229;28;20042;-79
2022/05/13 09:38:02;;;;;;;5.50;2.50;;;15.90;99.90;;;;;;5027248;28;20107;-82
2022/05/13 09:40:31;;;;;;;6.38;3.08;;;15.70;99.90;;;;;;5029035;28;20057;-78
2022/05/13 09:42:58;;;;;;;3.17;2.15;;;15.70;99.90;;;;;;5025041;28;20492;-78
2022/05/13 09:45:25;;;;;;;7.90;3.30;;;15.70;99.90;;;;;;5029249;28;20049;-78
2022/05/13 09:47:52;;;;;;;4.53;2.58;;;15.70;99.90;;;;;;5017328;28;20073;-77
2022/05/13 09:50:18;;;;;;;7.93;1.65;;;15.80;99.90;;;;;;5027303;28;20495;-79
2022/05/13 09:52:45;;;;;;;8.68;3.65;;;15.90;99.90;;;;;;5032837;28;20056;-78
2022/05/13 09:55:11;;;;;;;5.72;2.40;;;16.00;99.90;;;;;;5030708;28;20060;-80
2022/05/13 09:57:38;;;;;;;7.65;2.25;;;16.00;99.90;;;;;;5032642;28;20103;-79
2022/05/13 10:00:04;;;;;;;5.05;2.30;;;16.00;99.90;;;;;;5025880;28;20054;-82
2022/05/13 10:02:31;;;;;;;3.53;1.98;;;15.90;99.90;;;;;;5015959;28;20129;-79
2022/05/13 10:04:57;;;;;;;3.55;1.98;;;15.80;99.90;;;;;;5016798;28;20046;-79
2022/05/13 10:07:24;;;;;;;3.30;1.85;;;15.70;99.60;;;;;;5021440;28;20057;-79
2022/05/13 10:15:20;;;;;;;5.10;1.90;;;15.60;99.60;;;;;;5029188;28;20065;-80
2022/05/13 10:17:47;;;;;;;5.82;2.00;;;15.70;99.70;;;;;;5025824;28;20477;-79
2022/05/13 10:20:14;;;;;;;5.05;2.28;;;15.70;98.80;;;;;;5027136;28;20050;-80
2022/05/13 10:22:40;;;;;;;8.35;1.90;;;15.70;99.00;;;;;;5031193;28;20140;-79
2022/05/13 10:25:07;;;;;;;7.00;2.83;;;15.70;99.10;;;;;;5022707;28;20072;-79
2022/05/13 10:27:34;;;;;;;4.97;1.73;;;15.70;98.90;;;;;;5029574;28;20056;-78
2022/05/13 10:30:00;;;;;;;7.57;1.77;;;15.70;99.00;;;;;;5030344;28;20049;-78
2022/05/13 10:32:27;;;;;;;2.33;1.73;;;15.70;99.50;;;;;;5027773;28;20404;-79
2022/05/13 10:34:54;;;;;;;3.97;2.05;;;15.70;99.40;;;;;;5030270;28;20468;-78
2022/05/13 10:37:20;;;;;;;5.03;2.00;;;15.70;99.60;;;;;;5027388;28;20060;-82
2022/05/13 10:39:47;;;;;;;8.40;1.90;;;15.80;99.90;;;;;;5026260;28;20418;-80
2022/05/13 10:42:14;;;;;;;5.40;2.50;;;15.90;99.90;;;;;;5029485;28;20049;-83
2022/05/13 10:44:40;;;;;;;4.15;2.13;;;16.20;99.90;;;;;;5014209;28;20061;-78
2022/05/13 10:47:07;;;;;;;5.82;2.00;;;16.40;99.90;;;;;;5015907;28;20042;-78
2022/05/13 10:49:34;;;;;;;5.22;2.25;;;16.60;99.90;;;;;;5020948;28;20041;-79
2022/05/13 10:52:00;;;;;;;6.97;1.92;;;16.70;99.50;;;;;;5016717;28;20050;-78
2022/05/13 10:54:27;;;;;;;5.05;2.28;;;16.80;99.30;;;;;;5020302;28;20504;-78
2022/05/13 10:56:54;;;;;;;4.10;2.10;;;16.80;98.60;;;;;;5016773;28;20477;-80
2022/05/13 10:59:20;;;;;;;4.70;2.08;;;17.00;98.30;;;;;;5015085;28;20136;-79
2022/05/13 11:01:48;;;;;;;5.10;2.10;;;17.00;98.00;;;;;;5022502;28;20052;-79
2022/05/13 11:04:15;;;;;;;3.35;2.10;;;16.90;97.40;;;;;;5019533;28;20054;-82
2022/05/13 11:06:42;;;;;;;5.82;2.03;;;16.90;97.90;;;;;;5020595;28;20500;-78
2022/05/13 11:09:08;;;;;;;6.63;1.63;;;16.90;97.90;;;;;;5024592;28;20056;-79
2022/05/13 11:11:35;;;;;;;6.82;1.55;;;17.00;94.80;;;;;;5024448;28;20050;-79
2022/05/13 11:14:01;;;;;;;5.00;1.38;;;16.80;94.30;;;;;;5027407;28;20119;-78
2022/05/13 11:16:28;;;;;;;3.20;1.42;;;16.70;95.50;;;;;;5021733;28;20073;-78
2022/05/13 11:18:54;;;;;;;2.72;1.50;;;16.60;95.80;;;;;;5011239;28;20516;-79
2022/05/13 11:21:21;;;;;;;9.68;2.05;;;16.60;94.90;;;;;;5014077;28;20112;-79
2022/05/13 11:25:54;;;;;;;4.05;1.70;;;16.60;94.60;;;;;;5022851;28;20049;-79
2022/05/13 11:26:33;;;;;;;3.45;1.63;;;16.60;94.90;;;;;;5014345;28;20151;-82
2022/05/13 11:29:00;;;;;;;3.63;1.55;;;16.60;95.40;;;;;;5026765;28;20054;-79
2022/05/13 11:31:26;;;;;;;2.90;1.50;;;16.60;95.70;;;;;;5015552;28;20061;-79
2022/05/13 11:33:53;;;;;;;1.95;1.40;;;16.60;95.60;;;;;;5013577;28;20042;-78
2022/05/13 11:36:19;;;;;;;3.95;1.88;;;16.80;95.50;;;;;;5021291;28;20053;-81
2022/05/13 11:38:46;;;;;;;8.05;2.05;;;17.00;96.20;;;;;;5015488;28;20196;-79
2022/05/13 11:41:13;;;;;;;2.55;1.70;;;16.90;95.80;;;;;;5023283;28;20472;-79
2022/05/13 11:43:39;;;;;;;4.85;1.63;;;16.80;95.20;;;;;;5023909;28;20150;-79
2022/05/13 11:46:06;;;;;;;1.80;1.10;;;16.80;95.10;;;;;;5021348;28;20540;-79
2022/05/13 11:48:32;;;;;;;4.00;1.95;;;16.70;95.20;;;;;;5026968;28;20060;-82
2022/05/13 11:50:59;;;;;;;5.18;2.08;;;16.70;95.60;;;;;;5013519;28;20422;-79
2022/05/13 11:53:25;;;;;;;4.93;1.73;;;16.80;95.70;;;;;;5016630;28;20053;-80
2022/05/13 11:55:52;;;;;;;6.13;2.08;;;16.80;95.30;;;;;;5017468;28;20568;-79
2022/05/13 11:58:19;;;;;;;5.43;1.75;;;16.90;95.00;;;;;;5016814;28;20058;-79
2022/05/13 12:00:45;;;;;;;7.50;1.75;;;16.80;95.30;;;;;;5019184;28;20045;-78
2022/05/13 12:03:12;;;;;;;3.78;2.03;;;16.80;95.90;;;;;;5027507;28;20050;-77
2022/05/13 12:05:38;;;;;;;1.23;1.05;;;16.80;94.90;;;;;;5016281;28;20386;-80
2022/05/13 12:08:07;;;;;;;2.65;1.20;;;16.70;94.10;;;;;;5029498;28;20497;-78
2022/05/13 12:10:34;;;;;;;3.42;1.50;;;16.70;93.70;;;;;;5027759;28;20068;-79
2022/05/13 12:13:00;;;;;;;5.90;1.70;;;16.60;93.70;;;;;;5024540;28;20045;-79
2022/05/13 12:15:27;;;;;;;4.90;1.33;;;16.70;93.70;;;;;;5015569;28;20057;-79
2022/05/13 12:17:53;;;;;;;3.47;2.00;;;16.80;93.70;;;;;;5021714;28;20392;-79
2022/05/13 12:20:20;;;;;;;5.05;1.35;;;16.80;93.60;;;;;;5025940;28;20049;-79
2022/05/13 12:22:46;;;;;;;6.75;1.35;;;16.70;93.70;;;;;;5023189;28;20054;-78
2022/05/13 12:25:13;;;;;;;4.90;1.70;;;16.80;93.60;;;;;;5024822;28;20057;-79
2022/05/13 12:27:39;;;;;;;3.25;2.00;;;16.70;94.10;;;;;;5020549;28;20053;-79
2022/05/13 12:30:07;;;;;;;6.25;2.67;;;16.70;94.00;;;;;;5022924;28;20053;-79
2022/05/13 12:32:34;;;;;;;2.67;1.52;;;16.90;94.20;;;;;;5025593;28;20046;-79
2022/05/13 12:37:56;;;;;;;4.88;1.95;;;16.80;94.00;;;;;;4963354;28;20070;-79
2022/05/13 12:40:22;;;;;;;7.60;2.65;;;16.80;93.70;;;;;;5020994;28;20041;-79
2022/05/13 12:42:49;;;;;;;7.63;1.98;;;16.80;92.90;;;;;;5027372;28;20048;-79
2022/05/13 12:45:16;;;;;;;5.10;1.98;;;16.80;93.50;;;;;;5026066;28;20055;-79
2022/05/13 12:47:43;;;;;;;3.63;2.40;;;16.90;93.50;;;;;;5030640;28;20056;-85
2022/05/13 12:50:09;;;;;;;8.48;3.13;;;17.00;94.00;;;;;;5022780;28;20045;-80
2022/05/13 12:52:36;;;;;;;4.82;2.40;;;17.10;94.70;;;;;;5017870;28;20057;-81
2022/05/13 12:55:02;;;;;;;6.43;2.25;;;17.10;94.60;;;;;;5026828;28;20042;-79
2022/05/13 12:57:29;;;;;;;3.70;1.88;;;17.10;94.40;;;;;;5030735;28;20049;-80
2022/05/13 12:59:55;;;;;;;10.75;2.45;;;17.20;94.00;;;;;;5019086;28;20045;-81
2022/05/13 13:02:22;;;;;;;9.55;1.90;;;17.20;93.50;;;;;;5022601;28;20459;-80
2022/05/13 13:04:48;;;;;;;5.13;2.38;;;17.20;92.30;;;;;;5026623;28;20049;-85
2022/05/13 13:07:20;;;;;;;4.38;2.03;;;17.20;91.80;;;;;;5022596;28;20076;-79